Ackermanville, Pennsylvania
Current Conditions -  °F | °C
As of 3:51 PM on Tuesday 21 Oct 2014 (Local Time) from KABE Reporting Station
Broken Clouds Broken Clouds  
Wind Chill: 65°   Ceiling: 6000
Heat Index: 65°   Visibility: 10mi
Dew Point: 46°   Wind: 3mph
Humidity: 50%   Direction: NA
Pressure: 29.82"   Gusts: NA
Location:  40.84°N, 75.22°W
Report Text: KABE 211951Z VRB03KT 10SM BKN060 BKN085 18/08 A2982 RMK AO2 SLP097 T01830078
Loading
Personal Weather Stations






























Interactive Weather Map New forecast layout! Learn more

10-Day Weather Forecast

Advertisements
Track Severe Weather on mobile